BAW41R EHAM-EGLL
Flight info
| Callsign | BAW41R |
|---|---|
| Flight time | 0h 43m |
| Altitude | 24000 |
| Route | DCT IDRID L980 LOGAN LOGAN2H |
| Aircraft | A320/M-SDE3FGHIJ1KRWXY/SB1 |
Departure
| Time | 2026-05-06 10:09 |
|---|---|
| Airport | Amsterdam Airport Schiphol (EHAM) |
Arrival
| Time | 2026-05-06 10:52 |
|---|---|
| Airport | London Heathrow Airport (EGLL) |
| Time | Latitude | Longitude | Altitude | Speed | Heading |
|---|---|---|---|---|---|
| 2026-05-06 09:29 | 52.30707 | 4.77025 | -2 ft | 0 kts | 3° |
| 2026-05-06 09:57 | 52.30705 | 4.77025 | -2 ft | 2 kts | 3° |
| 2026-05-06 09:57 | 52.30680 | 4.77026 | -2 ft | 4 kts | 349° |
| 2026-05-06 09:57 | 52.30656 | 4.77040 | -2 ft | 4 kts | 317° |
| 2026-05-06 09:57 | 52.30645 | 4.77067 | -2 ft | 1 kts | 273° |
| 2026-05-06 10:00 | 52.30644 | 4.77060 | -2 ft | 1 kts | 254° |
| 2026-05-06 10:00 | 52.30626 | 4.77046 | -2 ft | 3 kts | 199° |
| 2026-05-06 10:00 | 52.30607 | 4.77043 | -2 ft | 5 kts | 182° |
| 2026-05-06 10:01 | 52.30570 | 4.77066 | -2 ft | 3 kts | 151° |
| 2026-05-06 10:01 | 52.30545 | 4.77082 | -3 ft | 5 kts | 169° |
| 2026-05-06 10:01 | 52.30505 | 4.77058 | -3 ft | 7 kts | 220° |
| 2026-05-06 10:01 | 52.30469 | 4.76979 | -3 ft | 10 kts | 238° |
| 2026-05-06 10:02 | 52.30429 | 4.76870 | -3 ft | 12 kts | 238° |
| 2026-05-06 10:02 | 52.30378 | 4.76737 | -2 ft | 15 kts | 238° |
| 2026-05-06 10:02 | 52.30321 | 4.76584 | -2 ft | 16 kts | 237° |
| 2026-05-06 10:02 | 52.30256 | 4.76421 | -2 ft | 18 kts | 239° |
| 2026-05-06 10:03 | 52.30186 | 4.76229 | -2 ft | 21 kts | 238° |
| 2026-05-06 10:03 | 52.30118 | 4.76064 | -2 ft | 18 kts | 238° |
| 2026-05-06 10:03 | 52.30052 | 4.75890 | -2 ft | 13 kts | 237° |
| 2026-05-06 10:03 | 52.30017 | 4.75797 | -3 ft | 11 kts | 238° |
| 2026-05-06 10:04 | 52.29974 | 4.75680 | -2 ft | 12 kts | 238° |
| 2026-05-06 10:04 | 52.29928 | 4.75560 | -2 ft | 14 kts | 238° |
| 2026-05-06 10:04 | 52.29875 | 4.75429 | -2 ft | 14 kts | 236° |
| 2026-05-06 10:04 | 52.29835 | 4.75292 | -2 ft | 13 kts | 259° |
| 2026-05-06 10:05 | 52.29867 | 4.75146 | -2 ft | 15 kts | 317° |
| 2026-05-06 10:05 | 52.29940 | 4.75020 | -2 ft | 15 kts | 309° |
| 2026-05-06 10:05 | 52.29999 | 4.74900 | -2 ft | 13 kts | 308° |
| 2026-05-06 10:05 | 52.30063 | 4.74780 | -2 ft | 15 kts | 311° |
| 2026-05-06 10:06 | 52.30138 | 4.74638 | -2 ft | 18 kts | 311° |
| 2026-05-06 10:06 | 52.30225 | 4.74483 | -2 ft | 17 kts | 310° |
| 2026-05-06 10:06 | 52.30283 | 4.74367 | -2 ft | 10 kts | 309° |
| 2026-05-06 10:06 | 52.30336 | 4.74268 | -2 ft | 13 kts | 310° |
| 2026-05-06 10:07 | 52.30395 | 4.74164 | -2 ft | 13 kts | 312° |
| 2026-05-06 10:07 | 52.30416 | 4.74016 | -2 ft | 15 kts | 251° |
| 2026-05-06 10:07 | 52.30414 | 4.73834 | -5 ft | 10 kts | 285° |
| 2026-05-06 10:07 | 52.30472 | 4.73763 | -4 ft | 12 kts | 356° |
| 2026-05-06 10:08 | 52.30586 | 4.73773 | -6 ft | 34 kts | 2° |
| 2026-05-06 10:08 | 52.31072 | 4.73815 | 0 ft | 103 kts | 3° |
| 2026-05-06 10:08 | 52.31976 | 4.73897 | -2 ft | 154 kts | 3° |
| 2026-05-06 10:08 | 52.33116 | 4.73953 | 370 ft | 168 kts | 1° |
| 2026-05-06 10:09 | 52.34282 | 4.74032 | 1059 ft | 168 kts | 4° |
| 2026-05-06 10:09 | 52.35466 | 4.74145 | 1559 ft | 179 kts | 4° |
| 2026-05-06 10:09 | 52.36766 | 4.74027 | 1836 ft | 203 kts | 348° |
| 2026-05-06 10:09 | 52.38219 | 4.73423 | 2228 ft | 227 kts | 344° |
| 2026-05-06 10:10 | 52.39820 | 4.72661 | 2696 ft | 252 kts | 343° |
| 2026-05-06 10:10 | 52.41554 | 4.71825 | 3388 ft | 265 kts | 343° |
| 2026-05-06 10:10 | 52.43335 | 4.70963 | 4307 ft | 269 kts | 343° |
| 2026-05-06 10:10 | 52.45140 | 4.70042 | 5234 ft | 273 kts | 338° |
| 2026-05-06 10:11 | 52.46697 | 4.68255 | 6101 ft | 278 kts | 310° |
| 2026-05-06 10:11 | 52.47598 | 4.65475 | 6991 ft | 281 kts | 282° |
| 2026-05-06 10:11 | 52.47865 | 4.62300 | 7882 ft | 283 kts | 274° |
| 2026-05-06 10:11 | 52.48007 | 4.59065 | 8761 ft | 286 kts | 272° |
| 2026-05-06 10:12 | 52.48135 | 4.55836 | 9570 ft | 289 kts | 272° |
| 2026-05-06 10:12 | 52.48259 | 4.52591 | 10201 ft | 300 kts | 272° |
| 2026-05-06 10:12 | 52.48346 | 4.49037 | 10441 ft | 323 kts | 265° |
| 2026-05-06 10:12 | 52.47758 | 4.45403 | 10797 ft | 336 kts | 241° |
| 2026-05-06 10:13 | 52.46402 | 4.42253 | 11434 ft | 341 kts | 230° |
| 2026-05-06 10:13 | 52.44910 | 4.39217 | 12124 ft | 345 kts | 230° |
| 2026-05-06 10:13 | 52.43382 | 4.36154 | 12710 ft | 349 kts | 230° |
| 2026-05-06 10:13 | 52.41851 | 4.33099 | 12899 ft | 349 kts | 230° |
| 2026-05-06 10:14 | 52.40297 | 4.29994 | 12990 ft | 352 kts | 230° |
| 2026-05-06 10:14 | 52.38741 | 4.26884 | 13679 ft | 353 kts | 230° |
| 2026-05-06 10:14 | 52.37304 | 4.24010 | 14311 ft | 356 kts | 230° |
| 2026-05-06 10:14 | 52.35812 | 4.21021 | 14920 ft | 359 kts | 230° |
| 2026-05-06 10:15 | 52.34225 | 4.17841 | 15531 ft | 363 kts | 230° |
| 2026-05-06 10:15 | 52.32618 | 4.14633 | 16140 ft | 366 kts | 230° |
| 2026-05-06 10:15 | 52.30997 | 4.11406 | 16739 ft | 369 kts | 230° |
| 2026-05-06 10:15 | 52.29361 | 4.08154 | 17321 ft | 372 kts | 230° |
| 2026-05-06 10:16 | 52.27705 | 4.04867 | 17904 ft | 376 kts | 230° |
| 2026-05-06 10:16 | 52.26036 | 4.01555 | 18493 ft | 379 kts | 230° |
| 2026-05-06 10:16 | 52.24354 | 3.98212 | 19082 ft | 382 kts | 230° |
| 2026-05-06 10:16 | 52.22657 | 3.94842 | 19673 ft | 386 kts | 230° |
| 2026-05-06 10:17 | 52.20945 | 3.91441 | 20259 ft | 389 kts | 230° |
| 2026-05-06 10:17 | 52.19215 | 3.88016 | 20801 ft | 393 kts | 230° |
| 2026-05-06 10:17 | 52.17475 | 3.84584 | 21350 ft | 396 kts | 230° |
| 2026-05-06 10:17 | 52.15731 | 3.81151 | 21849 ft | 399 kts | 230° |
| 2026-05-06 10:18 | 52.13956 | 3.77661 | 22353 ft | 402 kts | 230° |
| 2026-05-06 10:18 | 52.12162 | 3.74147 | 22838 ft | 405 kts | 230° |
| 2026-05-06 10:18 | 52.10354 | 3.70608 | 23312 ft | 408 kts | 230° |
| 2026-05-06 10:18 | 52.08533 | 3.67041 | 23764 ft | 411 kts | 230° |
| 2026-05-06 10:19 | 52.06706 | 3.63459 | 23911 ft | 412 kts | 230° |
| 2026-05-06 10:19 | 52.04869 | 3.59865 | 23942 ft | 414 kts | 230° |
| 2026-05-06 10:19 | 52.03025 | 3.56267 | 23940 ft | 414 kts | 229° |
| 2026-05-06 10:19 | 52.01178 | 3.52675 | 23940 ft | 415 kts | 229° |
| 2026-05-06 10:20 | 51.99331 | 3.49069 | 23944 ft | 415 kts | 230° |
| 2026-05-06 10:20 | 51.97553 | 3.45388 | 23942 ft | 415 kts | 232° |
| 2026-05-06 10:20 | 51.95837 | 3.41621 | 23941 ft | 415 kts | 233° |
| 2026-05-06 10:20 | 51.94159 | 3.37816 | 23936 ft | 415 kts | 234° |
| 2026-05-06 10:21 | 51.92489 | 3.34004 | 23942 ft | 415 kts | 234° |
| 2026-05-06 10:21 | 51.90811 | 3.30198 | 23948 ft | 415 kts | 233° |
| 2026-05-06 10:21 | 51.89121 | 3.26420 | 23944 ft | 415 kts | 233° |
| 2026-05-06 10:21 | 51.87419 | 3.22646 | 23941 ft | 415 kts | 234° |
| 2026-05-06 10:22 | 51.85958 | 3.18625 | 23940 ft | 415 kts | 244° |
| 2026-05-06 10:22 | 51.84949 | 3.14257 | 23945 ft | 416 kts | 254° |
| 2026-05-06 10:22 | 51.84422 | 3.09660 | 23940 ft | 417 kts | 263° |
| 2026-05-06 10:22 | 51.84130 | 3.04993 | 23942 ft | 417 kts | 263° |
| 2026-05-06 10:23 | 51.83831 | 3.00330 | 23937 ft | 417 kts | 263° |
| 2026-05-06 10:23 | 51.83525 | 2.95665 | 23940 ft | 417 kts | 263° |
| 2026-05-06 10:23 | 51.83220 | 2.91057 | 23934 ft | 417 kts | 263° |
| 2026-05-06 10:23 | 51.82909 | 2.86392 | 23935 ft | 417 kts | 263° |
| 2026-05-06 10:24 | 51.82599 | 2.81734 | 23935 ft | 417 kts | 263° |
| 2026-05-06 10:24 | 51.82286 | 2.77071 | 23940 ft | 417 kts | 263° |
| 2026-05-06 10:24 | 51.81969 | 2.72415 | 23938 ft | 417 kts | 263° |
| 2026-05-06 10:24 | 51.81648 | 2.67746 | 23941 ft | 417 kts | 263° |
| 2026-05-06 10:25 | 51.81329 | 2.63092 | 23941 ft | 417 kts | 263° |
| 2026-05-06 10:25 | 51.81011 | 2.58422 | 23939 ft | 417 kts | 263° |
| 2026-05-06 10:25 | 51.80693 | 2.53763 | 23933 ft | 417 kts | 263° |
| 2026-05-06 10:25 | 51.80369 | 2.49106 | 23942 ft | 417 kts | 263° |
| 2026-05-06 10:26 | 51.80044 | 2.44497 | 23940 ft | 417 kts | 263° |
| 2026-05-06 10:26 | 51.79708 | 2.39781 | 23943 ft | 417 kts | 263° |
| 2026-05-06 10:26 | 51.79376 | 2.35124 | 23937 ft | 417 kts | 263° |
| 2026-05-06 10:26 | 51.79042 | 2.30475 | 23939 ft | 417 kts | 263° |
| 2026-05-06 10:27 | 51.78709 | 2.25877 | 23936 ft | 417 kts | 263° |
| 2026-05-06 10:27 | 51.78367 | 2.21144 | 23944 ft | 417 kts | 263° |
| 2026-05-06 10:27 | 51.78067 | 2.16565 | 23944 ft | 417 kts | 264° |
| 2026-05-06 10:27 | 51.77794 | 2.11897 | 23938 ft | 417 kts | 264° |
| 2026-05-06 10:28 | 51.77533 | 2.07178 | 23944 ft | 417 kts | 264° |
| 2026-05-06 10:28 | 51.77276 | 2.02512 | 23944 ft | 417 kts | 264° |
| 2026-05-06 10:28 | 51.77014 | 1.97906 | 23945 ft | 417 kts | 264° |
| 2026-05-06 10:28 | 51.76739 | 1.93239 | 23945 ft | 417 kts | 264° |
| 2026-05-06 10:29 | 51.76458 | 1.88578 | 23940 ft | 417 kts | 264° |
| 2026-05-06 10:29 | 51.76174 | 1.83922 | 23937 ft | 417 kts | 264° |
| 2026-05-06 10:29 | 51.75886 | 1.79262 | 23936 ft | 417 kts | 264° |
| 2026-05-06 10:29 | 51.75599 | 1.74603 | 23936 ft | 417 kts | 263° |
| 2026-05-06 10:30 | 51.75307 | 1.69942 | 23943 ft | 417 kts | 263° |
| 2026-05-06 10:30 | 51.75013 | 1.65286 | 23944 ft | 417 kts | 263° |
| 2026-05-06 10:30 | 51.74721 | 1.60639 | 23948 ft | 417 kts | 263° |
| 2026-05-06 10:30 | 51.74427 | 1.55981 | 23958 ft | 416 kts | 263° |
| 2026-05-06 10:31 | 51.74134 | 1.51355 | 23963 ft | 416 kts | 263° |
| 2026-05-06 10:31 | 51.73838 | 1.46700 | 23964 ft | 415 kts | 263° |
| 2026-05-06 10:31 | 51.73540 | 1.42064 | 23956 ft | 415 kts | 263° |
| 2026-05-06 10:31 | 51.73239 | 1.37447 | 23957 ft | 415 kts | 263° |
| 2026-05-06 10:32 | 51.72934 | 1.32819 | 23959 ft | 414 kts | 263° |
| 2026-05-06 10:32 | 51.72627 | 1.28215 | 23953 ft | 414 kts | 263° |
| 2026-05-06 10:32 | 51.72316 | 1.23583 | 23946 ft | 414 kts | 263° |
| 2026-05-06 10:32 | 51.72005 | 1.18966 | 23959 ft | 414 kts | 263° |
| 2026-05-06 10:33 | 51.71695 | 1.14347 | 23946 ft | 414 kts | 263° |
| 2026-05-06 10:33 | 51.71386 | 1.09734 | 23957 ft | 414 kts | 263° |
| 2026-05-06 10:33 | 51.71075 | 1.05124 | 23952 ft | 414 kts | 263° |
| 2026-05-06 10:33 | 51.70758 | 1.00508 | 23955 ft | 411 kts | 263° |
| 2026-05-06 10:34 | 51.70447 | 0.95978 | 23744 ft | 401 kts | 263° |
| 2026-05-06 10:34 | 51.70142 | 0.91547 | 23369 ft | 396 kts | 263° |
| 2026-05-06 10:34 | 51.69837 | 0.87137 | 22960 ft | 393 kts | 263° |
| 2026-05-06 10:34 | 51.69543 | 0.82927 | 22551 ft | 391 kts | 263° |
| 2026-05-06 10:35 | 51.69234 | 0.78495 | 22102 ft | 388 kts | 263° |
| 2026-05-06 10:35 | 51.68926 | 0.74133 | 21669 ft | 385 kts | 263° |
| 2026-05-06 10:35 | 51.68620 | 0.69854 | 21221 ft | 383 kts | 263° |
| 2026-05-06 10:35 | 51.68317 | 0.65615 | 20772 ft | 380 kts | 263° |
| 2026-05-06 10:36 | 51.68014 | 0.61399 | 20317 ft | 377 kts | 263° |
| 2026-05-06 10:36 | 51.67717 | 0.57309 | 20144 ft | 366 kts | 262° |
| 2026-05-06 10:36 | 51.67423 | 0.53245 | 20012 ft | 354 kts | 263° |
| 2026-05-06 10:36 | 51.67142 | 0.49362 | 19887 ft | 343 kts | 262° |
| 2026-05-06 10:37 | 51.66870 | 0.45632 | 19631 ft | 337 kts | 262° |
| 2026-05-06 10:37 | 51.66600 | 0.41900 | 19288 ft | 334 kts | 262° |
| 2026-05-06 10:37 | 51.66334 | 0.38189 | 18921 ft | 332 kts | 262° |
| 2026-05-06 10:37 | 51.66063 | 0.34480 | 18364 ft | 337 kts | 262° |
| 2026-05-06 10:38 | 51.65785 | 0.30724 | 17863 ft | 339 kts | 262° |
| 2026-05-06 10:38 | 51.65501 | 0.26898 | 17317 ft | 341 kts | 262° |
| 2026-05-06 10:38 | 51.65218 | 0.23111 | 16563 ft | 349 kts | 262° |
| 2026-05-06 10:38 | 51.64924 | 0.19183 | 15809 ft | 356 kts | 262° |
| 2026-05-06 10:39 | 51.64623 | 0.15194 | 15056 ft | 362 kts | 262° |
| 2026-05-06 10:39 | 51.64303 | 0.11166 | 14397 ft | 363 kts | 261° |
| 2026-05-06 10:39 | 51.63956 | 0.07134 | 13766 ft | 363 kts | 261° |
| 2026-05-06 10:39 | 51.63607 | 0.03110 | 13139 ft | 363 kts | 261° |
| 2026-05-06 10:40 | 51.63258 | -0.00902 | 12509 ft | 362 kts | 261° |
| 2026-05-06 10:40 | 51.62916 | -0.04840 | 12000 ft | 358 kts | 261° |
| 2026-05-06 10:40 | 51.62581 | -0.08684 | 11838 ft | 344 kts | 261° |
| 2026-05-06 10:40 | 51.62253 | -0.12462 | 11698 ft | 330 kts | 261° |
| 2026-05-06 10:41 | 51.61947 | -0.16008 | 11580 ft | 318 kts | 261° |
| 2026-05-06 10:41 | 51.61646 | -0.19488 | 11305 ft | 312 kts | 261° |
| 2026-05-06 10:41 | 51.61345 | -0.22968 | 10904 ft | 311 kts | 261° |
| 2026-05-06 10:41 | 51.61049 | -0.26378 | 10699 ft | 303 kts | 261° |
| 2026-05-06 10:42 | 51.60767 | -0.29644 | 10538 ft | 295 kts | 261° |
| 2026-05-06 10:42 | 51.60488 | -0.32886 | 10244 ft | 292 kts | 261° |
| 2026-05-06 10:42 | 51.60209 | -0.36110 | 9927 ft | 290 kts | 261° |
| 2026-05-06 10:42 | 51.59930 | -0.39339 | 9476 ft | 293 kts | 261° |
| 2026-05-06 10:43 | 51.59646 | -0.42619 | 8985 ft | 298 kts | 261° |
| 2026-05-06 10:43 | 51.59358 | -0.45930 | 8485 ft | 301 kts | 261° |
| 2026-05-06 10:43 | 51.59065 | -0.49284 | 7980 ft | 304 kts | 261° |
| 2026-05-06 10:44 | 51.58578 | -0.54862 | 7391 ft | 300 kts | 261° |
| 2026-05-06 10:44 | 51.58293 | -0.58119 | 7267 ft | 289 kts | 261° |
| 2026-05-06 10:44 | 51.58019 | -0.61265 | 7115 ft | 281 kts | 261° |
| 2026-05-06 10:44 | 51.57754 | -0.64318 | 6993 ft | 272 kts | 261° |
| 2026-05-06 10:45 | 51.57497 | -0.67278 | 6923 ft | 262 kts | 261° |
| 2026-05-06 10:45 | 51.57249 | -0.70140 | 6788 ft | 255 kts | 261° |
| 2026-05-06 10:45 | 51.57009 | -0.72920 | 6664 ft | 248 kts | 261° |
| 2026-05-06 10:45 | 51.56774 | -0.75641 | 6421 ft | 245 kts | 261° |
| 2026-05-06 10:46 | 51.56539 | -0.78357 | 6094 ft | 245 kts | 261° |
| 2026-05-06 10:46 | 51.56255 | -0.81047 | 5770 ft | 244 kts | 250° |
| 2026-05-06 10:46 | 51.55356 | -0.83283 | 5446 ft | 239 kts | 218° |
| 2026-05-06 10:46 | 51.53887 | -0.84431 | 5123 ft | 236 kts | 191° |
| 2026-05-06 10:47 | 51.52282 | -0.84644 | 4670 ft | 241 kts | 174° |
| 2026-05-06 10:47 | 51.50641 | -0.83978 | 4261 ft | 243 kts | 154° |
| 2026-05-06 10:47 | 51.49254 | -0.82498 | 4082 ft | 236 kts | 136° |
| 2026-05-06 10:47 | 51.48255 | -0.80456 | 3880 ft | 231 kts | 118° |
| 2026-05-06 10:48 | 51.47705 | -0.78076 | 3639 ft | 227 kts | 101° |
| 2026-05-06 10:48 | 51.47600 | -0.75558 | 3358 ft | 227 kts | 90° |
| 2026-05-06 10:48 | 51.47620 | -0.73034 | 3052 ft | 223 kts | 90° |
| 2026-05-06 10:48 | 51.47638 | -0.70613 | 2773 ft | 212 kts | 90° |
| 2026-05-06 10:49 | 51.47653 | -0.68290 | 2506 ft | 203 kts | 90° |
| 2026-05-06 10:49 | 51.47665 | -0.66109 | 2246 ft | 190 kts | 90° |
| 2026-05-06 10:49 | 51.47676 | -0.64037 | 1986 ft | 176 kts | 90° |
| 2026-05-06 10:49 | 51.47686 | -0.62134 | 1765 ft | 167 kts | 91° |
| 2026-05-06 10:50 | 51.47695 | -0.60342 | 1538 ft | 151 kts | 91° |
| 2026-05-06 10:50 | 51.47703 | -0.58710 | 1355 ft | 143 kts | 91° |
| 2026-05-06 10:50 | 51.47710 | -0.57151 | 1175 ft | 139 kts | 91° |
| 2026-05-06 10:50 | 51.47717 | -0.55616 | 989 ft | 137 kts | 91° |
| 2026-05-06 10:51 | 51.47724 | -0.54088 | 808 ft | 137 kts | 91° |
| 2026-05-06 10:51 | 51.47731 | -0.52558 | 620 ft | 136 kts | 91° |
| 2026-05-06 10:51 | 51.47737 | -0.51034 | 431 ft | 137 kts | 91° |
| 2026-05-06 10:51 | 51.47744 | -0.49516 | 260 ft | 136 kts | 91° |
| 2026-05-06 10:52 | 51.47750 | -0.48001 | 94 ft | 131 kts | 90° |
| 2026-05-06 10:52 | 51.47754 | -0.46766 | 92 ft | 86 kts | 90° |
| 2026-05-06 10:52 | 51.47755 | -0.46152 | 89 ft | 31 kts | 90° |
| 2026-05-06 10:52 | 51.47755 | -0.45737 | 86 ft | 40 kts | 90° |
| 2026-05-06 10:53 | 51.47732 | -0.45494 | 88 ft | 18 kts | 138° |
| 2026-05-06 10:53 | 51.47616 | -0.45489 | 87 ft | 18 kts | 218° |
| 2026-05-06 10:53 | 51.47595 | -0.45691 | 88 ft | 20 kts | 267° |
| 2026-05-06 10:53 | 51.47594 | -0.45925 | 85 ft | 22 kts | 270° |
| 2026-05-06 10:54 | 51.47590 | -0.46181 | 87 ft | 24 kts | 269° |
| 2026-05-06 10:54 | 51.47591 | -0.46409 | 89 ft | 21 kts | 270° |
| 2026-05-06 10:54 | 51.47592 | -0.46655 | 90 ft | 22 kts | 270° |
| 2026-05-06 10:54 | 51.47584 | -0.46915 | 92 ft | 25 kts | 267° |
| 2026-05-06 10:55 | 51.47582 | -0.47199 | 88 ft | 25 kts | 271° |
| 2026-05-06 10:55 | 51.47582 | -0.47471 | 85 ft | 23 kts | 271° |
| 2026-05-06 10:55 | 51.47581 | -0.47715 | 89 ft | 20 kts | 269° |
| 2026-05-06 10:55 | 51.47579 | -0.47930 | 88 ft | 19 kts | 269° |
| 2026-05-06 10:56 | 51.47580 | -0.48150 | 89 ft | 20 kts | 272° |
| 2026-05-06 10:56 | 51.47579 | -0.48338 | 91 ft | 14 kts | 268° |
| 2026-05-06 10:56 | 51.47565 | -0.48457 | 91 ft | 12 kts | 235° |
| 2026-05-06 10:56 | 51.47467 | -0.48477 | 85 ft | 16 kts | 178° |
| 2026-05-06 10:57 | 51.47371 | -0.48472 | 87 ft | 14 kts | 178° |
| 2026-05-06 10:57 | 51.47270 | -0.48469 | 89 ft | 13 kts | 180° |
| 2026-05-06 10:57 | 51.47231 | -0.48560 | 86 ft | 7 kts | 269° |
| 2026-05-06 10:57 | 51.47232 | -0.48588 | 85 ft | 0 kts | 271° |